createdAt,value
2022-10-13T00:01:45.281Z,97686.59
2022-10-13T00:04:31.926Z,97691.28
2022-10-13T00:07:18.553Z,97688.81
2022-10-13T00:10:05.355Z,97692.69
2022-10-13T00:12:52.047Z,97677.00
2022-10-13T00:15:39.369Z,97682.56
2022-10-13T00:18:26.028Z,97687.25
2022-10-13T00:21:14.419Z,97693.81
2022-10-13T00:24:01.132Z,97693.97
2022-10-13T00:26:49.485Z,97694.34
2022-10-13T00:29:36.197Z,97692.72
2022-10-13T00:32:22.823Z,97700.09
2022-10-13T00:35:09.514Z,97703.75
2022-10-13T00:37:56.264Z,97691.44
2022-10-13T00:40:43.869Z,97700.63
2022-10-13T00:43:50.479Z,97695.31
2022-10-13T00:46:37.302Z,97700.03
2022-10-13T00:49:23.954Z,97702.69
2022-10-13T00:52:10.619Z,97697.53
2022-10-13T00:54:57.286Z,97698.53
2022-10-13T00:57:44.009Z,97692.59
2022-10-13T01:00:31.265Z,97695.41
2022-10-13T01:03:20.971Z,97697.47
2022-10-13T01:06:07.925Z,97695.78
2022-10-13T01:08:54.836Z,97711.00
2022-10-13T01:11:51.302Z,97700.50
2022-10-13T01:14:53.792Z,97697.84
2022-10-13T01:17:47.337Z,97698.84
2022-10-13T01:20:37.235Z,97698.84
2022-10-13T01:23:36.287Z,97701.91
2022-10-13T01:26:41.101Z,97705.41
2022-10-13T01:29:46.293Z,97700.22
2022-10-13T01:32:42.804Z,97703.91
2022-10-13T01:35:34.147Z,97700.44
2022-10-13T01:38:30.053Z,97687.25
2022-10-13T01:41:19.773Z,97680.25
2022-10-13T01:44:06.618Z,97679.44
2022-10-13T01:46:55.346Z,97674.31
2022-10-13T01:49:42.010Z,97672.63
2022-10-13T01:52:32.608Z,97688.63
2022-10-13T01:55:19.341Z,97678.16
2022-10-13T01:58:05.989Z,97676.50
2022-10-13T02:01:00.289Z,97682.84
2022-10-13T02:04:05.893Z,97682.22
2022-10-13T02:06:58.341Z,97683.88
2022-10-13T02:10:04.415Z,97669.91
2022-10-13T02:12:52.402Z,97667.41
2022-10-13T02:15:46.038Z,97674.78
2022-10-13T02:18:33.697Z,97675.59
2022-10-13T02:21:20.337Z,97680.13
2022-10-13T02:24:07.448Z,97677.63
2022-10-13T02:26:54.085Z,97674.94
2022-10-13T02:29:55.109Z,97677.00
2022-10-13T02:32:41.766Z,97671.81
2022-10-13T02:35:28.515Z,97670.81
2022-10-13T02:38:15.212Z,97671.00
2022-10-13T02:41:02.676Z,97665.88
2022-10-13T02:43:49.337Z,97665.88
2022-10-13T02:46:35.979Z,97659.69
2022-10-13T02:49:22.656Z,97651.66
2022-10-13T02:52:09.354Z,97658.03
2022-10-13T02:54:56.012Z,97661.72
2022-10-13T02:57:42.734Z,97654.72
2022-10-13T03:00:29.887Z,97652.06
2022-10-13T03:03:16.562Z,97650.59
2022-10-13T03:06:03.392Z,97644.22
2022-10-13T03:08:50.292Z,97637.25
2022-10-13T03:11:36.968Z,97635.41
2022-10-13T03:14:23.630Z,97639.91
2022-10-13T03:17:13.420Z,97641.75
2022-10-13T03:20:00.337Z,97635.59
2022-10-13T03:22:49.740Z,97635.59
2022-10-13T03:25:36.772Z,97640.09
2022-10-13T03:28:23.496Z,97641.94
2022-10-13T03:31:11.106Z,97649.94
2022-10-13T03:33:57.838Z,97646.44
2022-10-13T03:36:44.519Z,97651.78
2022-10-13T03:39:31.265Z,97645.81
2022-10-13T03:42:18.260Z,97644.97
2022-10-13T03:45:05.552Z,97645.81
2022-10-13T03:47:52.223Z,97651.16
2022-10-13T03:50:38.945Z,97655.63
2022-10-13T03:53:25.834Z,97650.50
2022-10-13T03:56:16.502Z,97656.66
2022-10-13T03:59:04.915Z,97656.03
2022-10-13T04:01:51.714Z,97649.84
2022-10-13T04:04:38.689Z,97649.84
2022-10-13T04:07:25.342Z,97645.38
2022-10-13T04:10:12.019Z,97643.69
2022-10-13T04:12:58.773Z,97650.88
2022-10-13T04:15:45.491Z,97647.38
2022-10-13T04:18:32.351Z,97640.38
2022-10-13T04:21:18.990Z,97651.06
2022-10-13T04:24:05.895Z,97657.22
2022-10-13T04:26:52.556Z,97654.75
2022-10-13T04:29:39.225Z,97652.91
2022-10-13T04:32:25.879Z,97656.56
2022-10-13T04:35:12.522Z,97662.91
2022-10-13T04:37:59.267Z,97664.78
2022-10-13T04:40:45.942Z,97661.44
2022-10-13T04:43:32.868Z,97657.78
2022-10-13T04:46:23.516Z,97654.47
2022-10-13T04:49:10.212Z,97659.81
2022-10-13T04:51:56.846Z,97653.63
2022-10-13T04:54:43.489Z,97658.16
2022-10-13T04:57:30.454Z,97645.84
2022-10-13T05:00:17.297Z,97644.97
2022-10-13T05:03:03.999Z,97643.34
2022-10-13T05:05:50.781Z,97641.50
2022-10-13T05:08:37.981Z,97638.00
2022-10-13T05:11:25.402Z,97643.34
2022-10-13T05:14:12.112Z,97639.84
2022-10-13T05:16:58.779Z,97634.50
2022-10-13T05:19:45.448Z,97632.03
2022-10-13T05:22:32.344Z,97631.19
2022-10-13T05:25:19.086Z,97632.03
2022-10-13T05:28:06.244Z,97627.69
2022-10-13T05:30:52.908Z,97632.22
2022-10-13T05:33:39.678Z,97627.69
2022-10-13T05:36:27.301Z,97633.22
2022-10-13T05:39:13.953Z,97630.56
2022-10-13T05:42:00.712Z,97632.41
2022-10-13T05:44:47.435Z,97622.72
2022-10-13T05:47:34.167Z,97633.41
2022-10-13T05:50:20.801Z,97632.56
2022-10-13T05:53:07.459Z,97626.63
2022-10-13T05:55:54.154Z,97624.94
2022-10-13T05:58:41.376Z,97624.13
2022-10-13T06:01:28.060Z,97621.66
2022-10-13T06:04:19.406Z,97627.81
2022-10-13T06:07:06.046Z,97625.13
2022-10-13T06:09:52.695Z,97620.63
2022-10-13T06:12:39.395Z,97619.78
2022-10-13T06:15:28.343Z,97628.63
2022-10-13T06:18:15.171Z,97624.56
2022-10-13T06:21:02.076Z,97619.31
2022-10-13T06:23:48.893Z,97620.91
2022-10-13T06:26:35.561Z,97617.91
2022-10-13T06:29:22.282Z,97619.66
2022-10-13T06:32:08.921Z,97611.91
2022-10-13T06:34:55.590Z,97615.66
2022-10-13T06:37:42.330Z,97615.94
2022-10-13T06:40:29.028Z,97615.38
2022-10-13T06:43:15.781Z,97612.31
2022-10-13T06:46:02.523Z,97613.97
2022-10-13T06:48:49.908Z,97616.28
2022-10-13T06:51:36.698Z,97619.59
2022-10-13T06:54:23.336Z,97615.91
2022-10-13T06:57:09.974Z,97620.03
2022-10-13T06:59:56.821Z,97622.72
2022-10-13T07:02:43.559Z,97624.34
2022-10-13T07:05:30.551Z,97626.81
2022-10-13T07:08:17.196Z,97621.31
2022-10-13T07:11:15.910Z,97627.47
2022-10-13T07:14:03.271Z,97621.09
2022-10-13T07:16:50.305Z,97629.13
2022-10-13T07:19:36.954Z,97631.34
2022-10-13T07:22:23.578Z,97629.41
2022-10-13T07:25:10.338Z,97620.34
2022-10-13T07:27:58.227Z,97621.72
2022-10-13T07:30:44.929Z,97614.31
2022-10-13T07:33:31.583Z,97614.66
2022-10-13T07:36:18.542Z,97610.53
2022-10-13T07:39:05.190Z,97611.56
2022-10-13T07:41:51.838Z,97606.38
2022-10-13T07:44:38.526Z,97604.72
2022-10-13T07:47:25.202Z,97607.59
2022-10-13T07:50:11.981Z,97605.75
2022-10-13T07:52:58.955Z,97604.09
2022-10-13T07:55:45.777Z,97599.78
2022-10-13T07:58:32.585Z,97602.44
2022-10-13T08:01:19.337Z,97603.25
2022-10-13T08:04:06.933Z,97610.28
2022-10-13T08:06:53.604Z,97600.41
2022-10-13T08:09:40.269Z,97596.72
2022-10-13T08:12:26.934Z,97599.19
2022-10-13T08:15:13.600Z,97600.06
2022-10-13T08:18:00.242Z,97599.03
2022-10-13T08:20:46.910Z,97597.84
2022-10-13T08:23:33.575Z,97602.16
2022-10-13T08:26:21.479Z,97608.31
2022-10-13T08:29:24.299Z,97609.78
2022-10-13T08:32:11.247Z,97613.06
2022-10-13T08:34:57.988Z,97605.88
2022-10-13T08:37:44.642Z,97608.19
2022-10-13T08:40:31.589Z,97612.50
2022-10-13T08:43:19.230Z,97607.00
2022-10-13T08:46:05.879Z,97602.28
2022-10-13T08:48:52.642Z,97601.91
2022-10-13T08:51:39.827Z,97606.25
2022-10-13T08:54:26.557Z,97605.00
2022-10-13T08:57:13.229Z,97599.50
2022-10-13T08:59:59.924Z,97599.31
2022-10-13T09:02:46.568Z,97602.63
2022-10-13T09:05:41.927Z,97596.25
2022-10-13T09:08:28.643Z,97596.06
2022-10-13T09:11:15.331Z,97594.84
2022-10-13T09:14:03.863Z,97602.50
2022-10-13T09:16:51.022Z,97604.13
2022-10-13T09:19:37.685Z,97598.63
2022-10-13T09:22:31.704Z,97599.25
2022-10-13T09:25:22.139Z,97591.88
2022-10-13T09:28:30.357Z,97595.16
2022-10-13T09:31:30.482Z,97589.66
2022-10-13T09:34:19.959Z,97595.59
2022-10-13T09:37:11.835Z,97591.94
2022-10-13T09:40:02.269Z,97597.72
2022-10-13T09:42:51.975Z,97593.22
2022-10-13T09:45:38.681Z,97592.00
2022-10-13T09:48:26.933Z,97601.69
2022-10-13T09:51:46.070Z,97599.63
2022-10-13T09:54:35.470Z,97603.78
2022-10-13T09:57:30.002Z,97596.59
2022-10-13T10:00:17.035Z,97589.22
2022-10-13T10:03:26.767Z,97591.50
2022-10-13T10:06:14.493Z,97579.78
2022-10-13T10:09:05.771Z,97576.09
2022-10-13T10:11:52.439Z,97574.06
2022-10-13T10:14:39.240Z,97577.34
2022-10-13T10:17:35.064Z,97576.31
2022-10-13T10:20:41.039Z,97579.66
2022-10-13T10:23:47.920Z,97568.56
2022-10-13T10:26:37.588Z,97562.19
2022-10-13T10:29:26.495Z,97563.66
2022-10-13T10:32:20.756Z,97559.97
2022-10-13T10:35:26.663Z,97555.28
2022-10-13T10:38:16.339Z,97548.69
2022-10-13T10:41:23.401Z,97558.38
2022-10-13T10:44:11.070Z,97549.13
2022-10-13T10:46:59.684Z,97542.56
2022-10-13T10:49:46.413Z,97548.56
2022-10-13T10:52:48.313Z,97541.34
2022-10-13T10:55:34.979Z,97541.97
2022-10-13T10:58:27.581Z,97546.94
2022-10-13T11:01:16.525Z,97552.09
2022-10-13T11:04:21.957Z,97543.06
2022-10-13T11:07:34.601Z,97531.31
2022-10-13T11:10:21.669Z,97537.31
2022-10-13T11:13:18.339Z,97526.41
2022-10-13T11:16:22.894Z,97527.88
2022-10-13T11:19:15.593Z,97526.84
2022-10-13T11:22:02.187Z,97517.78
2022-10-13T11:24:49.943Z,97506.91
2022-10-13T11:27:36.542Z,97505.06
2022-10-13T11:30:42.830Z,97504.84
2022-10-13T11:33:35.282Z,97510.03
2022-10-13T11:36:40.765Z,97500.97
2022-10-13T11:39:27.994Z,97504.28
2022-10-13T11:42:20.017Z,97493.38
2022-10-13T11:45:13.432Z,97492.34
2022-10-13T11:48:04.409Z,97486.81
2022-10-13T11:51:03.393Z,97477.75
2022-10-13T11:53:52.787Z,97483.75
2022-10-13T11:56:48.660Z,97475.50
2022-10-13T11:59:37.498Z,97481.50
2022-10-13T12:02:25.409Z,97475.09
2022-10-13T12:05:25.942Z,97464.19
2022-10-13T12:08:12.591Z,97466.47
2022-10-13T12:11:02.766Z,97466.28
2022-10-13T12:13:49.430Z,97459.69
2022-10-13T12:16:36.134Z,97453.13
2022-10-13T12:19:27.310Z,97454.78
2022-10-13T12:22:14.075Z,97453.56
2022-10-13T12:25:05.045Z,97451.50
2022-10-13T12:27:53.754Z,97443.06
2022-10-13T12:30:40.398Z,97439.16
2022-10-13T12:33:28.798Z,97430.94
2022-10-13T12:36:19.115Z,97432.38
2022-10-13T12:39:06.537Z,97433.84
2022-10-13T12:41:53.953Z,97436.94
2022-10-13T12:44:40.606Z,97427.88
2022-10-13T12:47:38.630Z,97425.81
2022-10-13T12:50:25.312Z,97426.44
2022-10-13T12:53:13.808Z,97429.72
2022-10-13T12:56:01.141Z,97431.19
2022-10-13T12:58:47.803Z,97429.13
2022-10-13T13:01:34.671Z,97433.44
2022-10-13T13:04:21.332Z,97430.59
2022-10-13T13:07:26.823Z,97431.00
2022-10-13T13:10:14.869Z,97430.81
2022-10-13T13:13:12.957Z,97426.09
2022-10-13T13:16:16.091Z,97430.41
2022-10-13T13:19:02.727Z,97427.53
2022-10-13T13:21:49.468Z,97421.97
2022-10-13T13:24:40.222Z,97420.94
2022-10-13T13:27:27.970Z,97431.44
2022-10-13T13:30:15.469Z,97427.50
2022-10-13T13:33:02.196Z,97414.97
2022-10-13T13:35:49.175Z,97419.28
2022-10-13T13:38:36.046Z,97425.47
2022-10-13T13:41:22.793Z,97415.78
2022-10-13T13:44:09.452Z,97405.50
2022-10-13T13:46:56.125Z,97404.47
2022-10-13T13:49:42.897Z,97403.44
2022-10-13T13:52:29.632Z,97401.78
2022-10-13T13:55:16.430Z,97394.34
2022-10-13T13:58:03.387Z,97396.84
2022-10-13T14:00:50.111Z,97389.63
2022-10-13T14:03:36.783Z,97385.09
2022-10-13T14:06:23.455Z,97384.91
2022-10-13T14:09:10.189Z,97383.88
2022-10-13T14:11:56.912Z,97379.31
2022-10-13T14:14:43.702Z,97384.47
2022-10-13T14:17:30.425Z,97386.94
2022-10-13T14:20:17.156Z,97382.63
2022-10-13T14:23:03.795Z,97385.91
2022-10-13T14:25:50.462Z,97384.88
2022-10-13T14:28:37.158Z,97390.22
2022-10-13T14:31:24.062Z,97385.72
2022-10-13T14:34:10.696Z,97389.00
2022-10-13T14:36:57.345Z,97388.19
2022-10-13T14:39:44.181Z,97380.97
2022-10-13T14:42:30.808Z,97378.28
2022-10-13T14:45:17.869Z,97373.75
2022-10-13T14:48:04.692Z,97370.25
2022-10-13T14:50:51.322Z,97378.09
2022-10-13T14:53:38.989Z,97367.38
2022-10-13T14:56:26.422Z,97361.19
2022-10-13T14:59:13.071Z,97374.38
2022-10-13T15:01:59.963Z,97372.53
2022-10-13T15:04:46.610Z,97377.06
2022-10-13T15:07:34.033Z,97379.53
2022-10-13T15:10:22.769Z,97376.84
2022-10-13T15:13:09.402Z,97373.97
2022-10-13T15:15:56.661Z,97367.78
2022-10-13T15:18:43.673Z,97367.56
2022-10-13T15:21:30.317Z,97372.94
2022-10-13T15:24:17.014Z,97367.56
2022-10-13T15:27:03.692Z,97375.19
2022-10-13T15:29:50.393Z,97363.84
2022-10-13T15:32:37.057Z,97365.47
2022-10-13T15:35:23.977Z,97368.31
2022-10-13T15:38:10.605Z,97359.59
2022-10-13T15:41:00.730Z,97365.34
2022-10-13T15:43:47.959Z,97372.31
2022-10-13T15:46:34.739Z,97368.84
2022-10-13T15:49:22.287Z,97367.13
2022-10-13T15:52:09.095Z,97372.91
2022-10-13T15:54:56.780Z,97372.47
2022-10-13T15:57:43.585Z,97374.50
2022-10-13T16:00:30.383Z,97379.69
2022-10-13T16:03:17.564Z,97381.31
2022-10-13T16:06:05.237Z,97376.56
2022-10-13T16:08:51.913Z,97375.53
2022-10-13T16:11:38.567Z,97371.78
2022-10-13T16:14:25.256Z,97377.97
2022-10-13T16:17:11.908Z,97373.47
2022-10-13T16:19:58.584Z,97373.47
2022-10-13T16:22:45.219Z,97368.09
2022-10-13T16:25:32.076Z,97364.56
2022-10-13T16:28:18.835Z,97369.13
2022-10-13T16:31:08.403Z,97365.63
2022-10-13T16:33:55.468Z,97370.16
2022-10-13T16:36:42.098Z,97372.03
2022-10-13T16:39:28.755Z,97368.53
2022-10-13T16:42:15.407Z,97374.91
2022-10-13T16:45:02.066Z,97373.25
2022-10-13T16:47:51.685Z,97364.63
2022-10-13T16:50:38.343Z,97364.00
2022-10-13T16:53:28.007Z,97363.38
2022-10-13T16:56:14.766Z,97376.19
2022-10-13T16:59:02.222Z,97377.25
2022-10-13T17:01:48.882Z,97364.25
2022-10-13T17:04:35.570Z,97362.00
2022-10-13T17:07:22.509Z,97364.06
2022-10-13T17:10:09.803Z,97360.78
2022-10-13T17:12:56.668Z,97364.72
2022-10-13T17:15:50.262Z,97362.25
2022-10-13T17:18:36.906Z,97363.47
2022-10-13T17:21:23.560Z,97372.75
2022-10-13T17:24:10.877Z,97372.97
2022-10-13T17:26:57.531Z,97378.75
2022-10-13T17:29:44.856Z,97375.44
2022-10-13T17:32:31.615Z,97365.16
2022-10-13T17:35:18.258Z,97367.22
2022-10-13T17:38:05.654Z,97358.56
2022-10-13T17:40:54.966Z,97369.72
2022-10-13T17:43:45.594Z,97370.97
2022-10-13T17:46:37.470Z,97370.34
2022-10-13T17:49:24.849Z,97368.94
2022-10-13T17:52:11.525Z,97370.38
2022-10-13T17:54:58.169Z,97380.47
2022-10-13T17:57:44.886Z,97379.03
2022-10-13T18:00:36.600Z,97369.59
2022-10-13T18:03:30.571Z,97363.59
2022-10-13T18:06:17.629Z,97365.66
2022-10-13T18:09:05.065Z,97354.53
2022-10-13T18:11:52.610Z,97357.66
2022-10-13T18:14:39.278Z,97357.03
2022-10-13T18:17:25.922Z,97350.22
2022-10-13T18:20:12.583Z,97356.00
2022-10-13T18:22:59.661Z,97360.75
2022-10-13T18:25:46.361Z,97361.16
2022-10-13T18:28:33.898Z,97363.44
2022-10-13T18:31:39.410Z,97365.53
2022-10-13T18:34:26.062Z,97356.03
2022-10-13T18:37:12.708Z,97356.44
2022-10-13T18:39:59.387Z,97350.47
2022-10-13T18:42:49.633Z,97347.38
2022-10-13T18:45:39.592Z,97351.31
2022-10-13T18:48:26.420Z,97351.72
2022-10-13T18:51:14.022Z,97344.09
2022-10-13T18:54:00.838Z,97353.38
2022-10-13T18:56:47.499Z,97344.94
2022-10-13T18:59:38.526Z,97356.06
2022-10-13T19:02:25.232Z,97348.47
2022-10-13T19:05:11.895Z,97349.69
2022-10-13T19:07:58.567Z,97334.03
2022-10-13T19:10:45.400Z,97342.47
2022-10-13T19:13:32.784Z,97331.16
2022-10-13T19:16:20.500Z,97335.88
2022-10-13T19:19:09.020Z,97336.25
2022-10-13T19:21:55.706Z,97330.31
2022-10-13T19:24:42.370Z,97327.22
2022-10-13T19:27:29.103Z,97332.97
2022-10-13T19:30:16.048Z,97336.88
2022-10-13T19:33:05.454Z,97345.13
2022-10-13T19:35:52.230Z,97335.88
2022-10-13T19:38:38.962Z,97339.75
2022-10-13T19:41:27.161Z,97339.13
2022-10-13T19:44:14.477Z,97328.03
2022-10-13T19:47:01.126Z,97336.47
2022-10-13T19:49:47.852Z,97325.97
2022-10-13T19:52:34.496Z,97335.22
2022-10-13T19:55:21.271Z,97324.94
2022-10-13T19:58:07.963Z,97327.00
2022-10-13T20:00:54.656Z,97320.19
2022-10-13T20:03:41.437Z,97320.41
2022-10-13T20:06:28.146Z,97311.97
2022-10-13T20:09:15.003Z,97311.34
2022-10-13T20:12:01.683Z,97308.88
2022-10-13T20:14:48.488Z,97305.56
2022-10-13T20:17:35.186Z,97311.13
2022-10-13T20:20:22.601Z,97307.81
2022-10-13T20:23:09.444Z,97317.69
2022-10-13T20:25:56.107Z,97314.44
2022-10-13T20:28:43.421Z,97321.81
2022-10-13T20:31:30.222Z,97317.50
2022-10-13T20:34:17.080Z,97315.84
2022-10-13T20:37:03.763Z,97310.69
2022-10-13T20:39:50.408Z,97302.25
2022-10-13T20:42:37.087Z,97295.28
2022-10-13T20:45:23.833Z,97308.81
2022-10-13T20:48:10.679Z,97305.53
2022-10-13T20:51:01.006Z,97299.56
2022-10-13T20:53:48.429Z,97305.13
2022-10-13T20:56:35.716Z,97302.66
2022-10-13T20:59:22.435Z,97302.84
2022-10-13T21:02:11.008Z,97298.72
2022-10-13T21:04:57.654Z,97300.78
2022-10-13T21:07:44.333Z,97298.53
2022-10-13T21:10:31.000Z,97306.75
2022-10-13T21:13:17.712Z,97310.44
2022-10-13T21:16:08.762Z,97309.00
2022-10-13T21:18:56.234Z,97311.84
2022-10-13T21:21:43.044Z,97316.59
2022-10-13T21:24:29.729Z,97311.44
2022-10-13T21:27:16.399Z,97310.84
2022-10-13T21:30:03.877Z,97313.06
2022-10-13T21:32:50.583Z,97327.44
2022-10-13T21:35:37.283Z,97360.75
2022-10-13T21:38:24.086Z,97345.28
2022-10-13T21:41:11.538Z,97355.38
2022-10-13T21:43:58.273Z,97330.50
2022-10-13T21:46:45.033Z,97312.81
2022-10-13T21:49:32.029Z,97313.03
2022-10-13T21:52:18.723Z,97350.63
2022-10-13T21:55:05.630Z,97359.66
2022-10-13T21:57:52.442Z,97345.47
2022-10-13T22:00:39.481Z,97325.13
2022-10-13T22:03:26.273Z,97344.88
2022-10-13T22:06:19.100Z,97330.66
2022-10-13T22:09:06.544Z,97337.03
2022-10-13T22:11:56.456Z,97331.91
2022-10-13T22:14:43.417Z,97333.09
2022-10-13T22:17:30.135Z,97337.59
2022-10-13T22:20:16.783Z,97340.44
2022-10-13T22:23:03.437Z,97330.78
2022-10-13T22:25:50.166Z,97336.34
2022-10-13T22:28:37.580Z,97331.00
2022-10-13T22:31:24.643Z,97326.66
2022-10-13T22:34:13.838Z,97331.19
2022-10-13T22:37:00.481Z,97330.56
2022-10-13T22:39:47.163Z,97322.75
2022-10-13T22:42:33.920Z,97323.78
2022-10-13T22:45:20.553Z,97315.13
2022-10-13T22:48:09.826Z,97318.81
2022-10-13T22:50:56.605Z,97316.16
2022-10-13T22:53:43.359Z,97319.03
2022-10-13T22:56:30.932Z,97314.72
2022-10-13T22:59:17.622Z,97318.59
2022-10-13T23:02:04.267Z,97322.09
2022-10-13T23:04:50.986Z,97316.97
2022-10-13T23:07:37.631Z,97313.66
2022-10-13T23:10:24.310Z,97316.31
2022-10-13T23:13:11.085Z,97314.69
2022-10-13T23:16:01.305Z,97305.84
2022-10-13T23:18:48.004Z,97308.72
2022-10-13T23:21:34.634Z,97314.25
2022-10-13T23:24:21.335Z,97313.44
2022-10-13T23:27:08.003Z,97307.47
2022-10-13T23:29:54.650Z,97310.34
2022-10-13T23:32:41.290Z,97302.31
2022-10-13T23:35:27.938Z,97305.19
2022-10-13T23:38:14.590Z,97307.66
2022-10-13T23:41:02.098Z,97299.00
2022-10-13T23:43:48.793Z,97301.69
2022-10-13T23:46:35.438Z,97301.91
2022-10-13T23:49:22.137Z,97302.06
2022-10-13T23:52:11.065Z,97295.09
2022-10-13T23:54:57.864Z,97294.28
2022-10-13T23:57:44.497Z,97298.78
